Metar Aviation Weather Data EGNJ

10°C Temp
10°C Dewpoint
% Humidity
Temperature
23 KM/H
14 MPH
12 KTS
190°
Due South

Wind Speed
Mostly Scattered
Clouds
Pressure 986.92 (hPa) - 29.14 (in)
Visibility 6.2 (mi) - 10 (km)

Current Conditions
EGNJ
Metar :EGNJ 282350Z AUTO 19012KT 9999 SCT010/// SCT015/// BKN021/// 10/10 Q0987
Sat 29th February 00:50 am

  Metar Aviation API Data Provided by https://www.checkwx.com/ PHP scripts by weather34.com ©2020